createdAt,value
2022-09-13T00:02:45.463Z,16.10
2022-09-13T00:05:32.136Z,15.90
2022-09-13T00:08:18.532Z,15.90
2022-09-13T00:11:04.342Z,15.90
2022-09-13T00:13:49.942Z,15.80
2022-09-13T00:16:35.297Z,15.80
2022-09-13T00:19:20.634Z,15.70
2022-09-13T00:22:06.647Z,15.70
2022-09-13T00:40:07.435Z,15.40
2022-09-13T00:42:53.377Z,15.40
2022-09-13T00:45:40.300Z,15.30
2022-09-13T01:01:36.605Z,15.20
2022-09-13T01:04:26.132Z,15.10
2022-09-13T01:07:14.834Z,15.00
2022-09-13T01:10:02.947Z,15.10
2022-09-13T01:12:58.876Z,15.20
2022-09-13T01:15:44.864Z,15.20
2022-09-13T01:18:30.359Z,15.10
2022-09-13T01:21:27.946Z,15.00
2022-09-13T01:24:31.498Z,15.00
2022-09-13T01:27:26.074Z,15.20
2022-09-13T01:30:20.102Z,15.20
2022-09-13T01:33:24.085Z,15.10
2022-09-13T01:36:35.430Z,15.00
2022-09-13T01:39:51.580Z,14.90
2022-09-13T01:42:54.970Z,14.90
2022-09-13T01:45:46.880Z,14.80
2022-09-13T01:53:35.075Z,14.90
2022-09-13T01:56:28.048Z,15.00
2022-09-13T01:59:22.480Z,14.90
2022-09-13T02:02:25.747Z,14.70
2022-09-13T02:05:55.000Z,14.60
2022-09-13T02:08:54.198Z,14.60
2022-09-13T02:11:43.116Z,14.60
2022-09-13T02:14:35.211Z,14.60
2022-09-13T02:17:24.702Z,14.60
2022-09-13T02:20:20.257Z,14.70
2022-09-13T02:23:13.313Z,14.80
2022-09-13T02:26:01.710Z,14.70
2022-09-13T02:28:54.275Z,14.80
2022-09-13T02:32:00.036Z,14.90
2022-09-13T02:34:58.108Z,14.90
2022-09-13T02:37:48.856Z,14.80
2022-09-13T02:40:41.389Z,14.80
2022-09-13T02:43:37.977Z,14.90
2022-09-13T02:46:41.267Z,14.90
2022-09-13T02:54:30.116Z,15.10
2022-09-13T03:00:41.908Z,15.30
2022-09-13T03:03:27.413Z,15.40
2022-09-13T03:06:12.895Z,15.40
2022-09-13T03:09:03.893Z,15.30
2022-09-13T03:12:29.708Z,15.20
2022-09-13T03:15:44.106Z,15.10
2022-09-13T03:18:56.807Z,15.20
2022-09-13T03:22:24.334Z,15.30
2022-09-13T03:25:48.417Z,15.30
2022-09-13T03:29:06.377Z,15.20
2022-09-13T03:32:17.019Z,15.20
2022-09-13T03:35:05.335Z,15.20
2022-09-13T03:37:56.510Z,15.10
2022-09-13T03:40:51.922Z,15.10
2022-09-13T03:43:45.741Z,15.00
2022-09-13T03:46:35.390Z,14.90
2022-09-13T03:54:23.976Z,15.00
2022-09-13T03:57:21.546Z,15.00
2022-09-13T04:00:07.088Z,14.90
2022-09-13T04:02:52.497Z,15.00
2022-09-13T04:05:37.894Z,14.90
2022-09-13T04:08:23.567Z,14.90
2022-09-13T04:11:09.605Z,14.90
2022-09-13T04:13:55.379Z,14.90
2022-09-13T04:16:40.716Z,14.90
2022-09-13T04:19:26.513Z,14.90
2022-09-13T04:22:11.954Z,14.90
2022-09-13T04:25:02.016Z,15.00
2022-09-13T04:27:49.177Z,15.10
2022-09-13T04:30:34.568Z,15.30
2022-09-13T04:33:20.103Z,15.30
2022-09-13T04:36:05.632Z,15.40
2022-09-13T04:38:50.945Z,15.50
2022-09-13T04:41:36.344Z,15.50
2022-09-13T04:44:24.279Z,15.40
2022-09-13T04:47:10.587Z,15.30
2022-09-13T04:54:52.191Z,15.20
2022-09-13T04:57:37.815Z,15.30
2022-09-13T05:00:23.299Z,15.30
2022-09-13T05:03:08.479Z,15.50
2022-09-13T05:05:54.021Z,15.40
2022-09-13T05:08:40.295Z,15.60
2022-09-13T05:11:27.499Z,15.70
2022-09-13T05:14:13.122Z,15.80
2022-09-13T05:16:58.689Z,15.90
2022-09-13T05:19:44.299Z,16.00
2022-09-13T05:22:29.869Z,16.00
2022-09-13T05:25:16.283Z,16.10
2022-09-13T05:28:02.167Z,16.10
2022-09-13T05:31:08.386Z,16.30
2022-09-13T05:33:57.328Z,16.30
2022-09-13T05:36:42.701Z,16.30
2022-09-13T05:39:36.350Z,16.20
2022-09-13T05:42:29.470Z,16.10
2022-09-13T05:45:15.622Z,16.00
2022-09-13T05:48:00.747Z,16.00
2022-09-13T05:54:53.504Z,16.40
2022-09-13T05:57:39.593Z,16.50
2022-09-13T06:00:26.708Z,16.50
2022-09-13T06:03:12.696Z,16.60
2022-09-13T06:05:58.653Z,16.60
2022-09-13T06:08:45.368Z,16.60
2022-09-13T06:11:31.521Z,16.70
2022-09-13T06:14:16.674Z,16.70
2022-09-13T06:17:02.722Z,16.70
2022-09-13T06:19:48.236Z,16.80
2022-09-13T06:22:35.332Z,16.90
2022-09-13T06:25:20.570Z,16.90
2022-09-13T06:28:05.995Z,17.00
2022-09-13T06:30:52.325Z,17.00
2022-09-13T06:33:40.258Z,17.10
2022-09-13T06:36:26.312Z,17.20
2022-09-13T06:39:14.235Z,17.20
2022-09-13T06:42:02.045Z,17.20
2022-09-13T06:44:48.529Z,17.10
2022-09-13T06:47:33.944Z,17.10
2022-09-13T06:55:16.047Z,17.10
2022-09-13T06:58:01.493Z,17.10
2022-09-13T07:00:46.980Z,17.10
2022-09-13T07:03:32.533Z,17.10
2022-09-13T07:06:22.389Z,17.10
2022-09-13T07:09:10.721Z,17.20
2022-09-13T07:11:57.054Z,17.30
2022-09-13T07:14:42.360Z,17.40
2022-09-13T07:17:31.295Z,17.40
2022-09-13T07:20:17.386Z,17.50
2022-09-13T07:23:02.811Z,17.40
2022-09-13T07:25:55.084Z,17.30
2022-09-13T07:28:43.460Z,17.20
2022-09-13T07:31:41.215Z,17.20
2022-09-13T07:34:27.411Z,17.30
2022-09-13T07:37:12.950Z,17.30
2022-09-13T07:39:59.709Z,17.30
2022-09-13T07:42:44.906Z,17.30
2022-09-13T07:45:30.551Z,17.40
2022-09-13T07:48:15.911Z,17.40
2022-09-13T07:55:09.090Z,17.60
2022-09-13T07:57:54.735Z,17.70
2022-09-13T08:00:40.024Z,17.80
2022-09-13T08:03:25.626Z,17.90
2022-09-13T08:06:11.330Z,18.10
2022-09-13T08:08:57.200Z,18.20
2022-09-13T08:11:48.024Z,18.40
2022-09-13T08:14:33.580Z,18.70
2022-09-13T08:17:18.970Z,18.80
2022-09-13T08:20:06.232Z,18.90
2022-09-13T08:22:51.852Z,19.20
2022-09-13T08:25:38.876Z,19.10
2022-09-13T08:28:27.633Z,19.10
2022-09-13T08:31:17.136Z,19.10
2022-09-13T08:34:02.614Z,19.10
2022-09-13T08:36:48.510Z,18.80
2022-09-13T08:39:34.771Z,18.80
2022-09-13T08:42:49.324Z,18.50
2022-09-13T08:45:34.524Z,18.30
2022-09-13T08:48:26.479Z,18.10
2022-09-13T08:51:40.203Z,17.90
2022-09-13T08:54:26.631Z,17.80
2022-09-13T08:57:18.629Z,17.80
2022-09-13T09:00:20.778Z,17.80
2022-09-13T09:03:46.868Z,17.90
2022-09-13T09:06:35.516Z,18.10
2022-09-13T09:09:22.077Z,18.20
2022-09-13T09:17:18.028Z,18.40
2022-09-13T09:23:51.981Z,18.60
2022-09-13T09:26:37.852Z,19.00
2022-09-13T09:29:32.970Z,19.10
2022-09-13T09:32:49.253Z,19.20
2022-09-13T09:35:56.514Z,19.20
2022-09-13T09:38:44.026Z,19.30
2022-09-13T09:44:46.847Z,19.10
2022-09-13T09:47:43.276Z,18.80
2022-09-13T09:55:21.834Z,18.70
2022-09-13T09:58:08.668Z,18.60
2022-09-13T10:00:56.546Z,18.50
2022-09-13T10:03:41.804Z,18.60
2022-09-13T10:06:30.003Z,18.80
2022-09-13T10:09:21.028Z,18.90
2022-09-13T10:12:07.136Z,19.10
2022-09-13T10:14:59.041Z,19.30
2022-09-13T10:18:02.225Z,19.20
2022-09-13T10:21:08.078Z,19.40
2022-09-13T10:24:36.692Z,19.40
2022-09-13T10:27:24.785Z,19.40
2022-09-13T10:30:30.138Z,19.30
2022-09-13T10:33:38.583Z,19.30
2022-09-13T10:39:37.809Z,19.10
2022-09-13T10:42:26.476Z,19.10
2022-09-13T10:45:27.087Z,19.10
2022-09-13T10:48:20.524Z,19.20
2022-09-13T10:56:09.368Z,19.30
2022-09-13T10:59:16.583Z,19.70
2022-09-13T11:02:39.828Z,19.70
2022-09-13T11:05:37.456Z,20.00
2022-09-13T11:08:41.631Z,20.10
2022-09-13T11:11:35.713Z,20.20
2022-09-13T11:14:39.540Z,20.20
2022-09-13T11:17:24.883Z,20.10
2022-09-13T11:20:28.391Z,20.10
2022-09-13T11:23:38.530Z,20.40
2022-09-13T11:26:46.566Z,20.80
2022-09-13T11:30:02.951Z,20.90
2022-09-13T11:33:14.460Z,20.90
2022-09-13T11:36:37.547Z,20.80
2022-09-13T11:39:34.222Z,20.60
2022-09-13T11:42:41.938Z,20.50
2022-09-13T11:45:28.647Z,20.40
2022-09-13T11:48:30.146Z,20.40
2022-09-13T11:51:25.323Z,20.60
2022-09-13T11:54:16.767Z,20.70
2022-09-13T11:57:10.972Z,20.70
2022-09-13T12:00:02.308Z,20.80
2022-09-13T12:03:02.507Z,20.80
2022-09-13T12:05:57.933Z,20.90
2022-09-13T12:08:56.780Z,20.90
2022-09-13T12:11:45.401Z,21.00
2022-09-13T12:14:42.506Z,21.10
2022-09-13T12:17:32.278Z,21.10
2022-09-13T12:20:41.826Z,21.10
2022-09-13T12:23:43.736Z,21.10
2022-09-13T12:26:42.056Z,21.10
2022-09-13T12:29:30.390Z,21.00
2022-09-13T12:32:17.151Z,21.00
2022-09-13T12:35:16.954Z,20.80
2022-09-13T12:38:33.543Z,20.80
2022-09-13T12:41:41.906Z,20.90
2022-09-13T12:44:55.730Z,21.20
2022-09-13T12:47:59.505Z,21.50
2022-09-13T12:51:22.423Z,21.60
2022-09-13T12:55:04.214Z,21.60
2022-09-13T12:58:02.111Z,21.90
2022-09-13T13:01:20.977Z,22.00
2022-09-13T13:04:15.692Z,22.20
2022-09-13T13:07:08.367Z,22.00
2022-09-13T13:09:56.058Z,21.50
2022-09-13T13:12:41.681Z,21.40
2022-09-13T13:15:27.399Z,21.30
2022-09-13T13:18:36.387Z,21.30
2022-09-13T13:21:40.420Z,21.50
2022-09-13T13:24:28.735Z,21.40
2022-09-13T13:27:51.763Z,21.40
2022-09-13T13:30:42.995Z,21.50
2022-09-13T13:33:29.573Z,21.60
2022-09-13T13:36:41.941Z,21.70
2022-09-13T13:39:27.298Z,21.80
2022-09-13T13:42:38.455Z,22.00
2022-09-13T13:45:28.041Z,22.00
2022-09-13T13:48:15.667Z,22.10
2022-09-13T13:51:23.400Z,22.20
2022-09-13T13:55:04.765Z,22.40
2022-09-13T13:58:20.218Z,22.40
2022-09-13T14:01:06.488Z,22.40
2022-09-13T14:04:11.158Z,22.40
2022-09-13T14:07:09.415Z,22.50
2022-09-13T14:10:30.378Z,22.50
2022-09-13T14:13:30.532Z,22.50
2022-09-13T14:16:49.720Z,22.50
2022-09-13T14:19:42.942Z,22.40
2022-09-13T14:22:29.416Z,22.40
2022-09-13T14:25:23.725Z,22.30
2022-09-13T14:28:09.551Z,22.30
2022-09-13T14:30:57.643Z,22.30
2022-09-13T14:33:43.110Z,22.30
2022-09-13T14:36:29.007Z,22.40
2022-09-13T14:39:14.534Z,22.50
2022-09-13T14:42:07.754Z,22.50
2022-09-13T14:44:53.533Z,22.50
2022-09-13T14:47:54.225Z,22.50
2022-09-13T15:02:38.287Z,22.50
2022-09-13T15:05:27.840Z,22.40
2022-09-13T15:08:35.218Z,22.20
2022-09-13T15:11:32.774Z,22.10
2022-09-13T15:17:56.687Z,21.70
2022-09-13T15:21:09.294Z,21.50
2022-09-13T15:23:54.702Z,21.50
2022-09-13T15:26:40.203Z,21.40
2022-09-13T15:29:25.761Z,21.40
2022-09-13T15:32:22.838Z,21.40
2022-09-13T15:38:36.517Z,21.30
2022-09-13T15:41:21.909Z,21.20
2022-09-13T15:44:09.810Z,21.10
2022-09-13T15:46:57.391Z,21.10
2022-09-13T15:49:50.652Z,21.10
2022-09-13T15:52:35.694Z,21.00
2022-09-13T15:56:18.035Z,21.00
2022-09-13T15:59:03.748Z,21.00
2022-09-13T16:01:51.561Z,20.80
2022-09-13T16:04:36.919Z,20.80
2022-09-13T16:07:23.578Z,20.90
2022-09-13T16:10:18.869Z,20.90
2022-09-13T16:13:04.452Z,20.90
2022-09-13T16:15:51.100Z,20.90
2022-09-13T16:18:37.974Z,20.80
2022-09-13T16:21:23.555Z,20.80
2022-09-13T16:24:09.281Z,20.70
2022-09-13T16:26:54.908Z,20.70
2022-09-13T16:29:41.008Z,20.80
2022-09-13T16:32:26.540Z,20.70
2022-09-13T16:35:12.979Z,20.70
2022-09-13T16:37:58.838Z,20.60
2022-09-13T16:40:45.138Z,20.60
2022-09-13T16:43:30.630Z,20.60
2022-09-13T16:46:16.139Z,20.60
2022-09-13T16:49:01.399Z,20.50
2022-09-13T16:51:46.874Z,20.50
2022-09-13T17:06:45.931Z,20.40
2022-09-13T17:09:31.580Z,20.30
2022-09-13T17:12:17.096Z,20.30
2022-09-13T17:15:02.733Z,20.30
2022-09-13T17:17:48.158Z,20.20
2022-09-13T17:20:33.721Z,20.20
2022-09-13T17:23:19.270Z,20.20
2022-09-13T17:26:04.692Z,20.10
2022-09-13T17:28:51.781Z,20.10
2022-09-13T17:31:37.221Z,20.10
2022-09-13T17:34:22.938Z,20.00
2022-09-13T17:37:08.650Z,20.00
2022-09-13T17:39:54.100Z,19.90
2022-09-13T17:42:39.554Z,19.90
2022-09-13T17:45:26.231Z,19.80
2022-09-13T17:48:12.353Z,19.80
2022-09-13T17:51:05.959Z,19.80
2022-09-13T17:53:54.362Z,19.90
2022-09-13T17:57:36.428Z,19.90
2022-09-13T18:00:21.798Z,19.80
2022-09-13T18:03:07.552Z,19.70
2022-09-13T18:06:01.044Z,19.60
2022-09-13T18:08:46.715Z,19.60
2022-09-13T18:11:32.438Z,19.60
2022-09-13T18:14:18.950Z,19.60
2022-09-13T18:17:12.853Z,19.60
2022-09-13T18:19:58.469Z,19.60
2022-09-13T18:22:43.963Z,19.50
2022-09-13T18:25:29.510Z,19.50
2022-09-13T18:28:15.009Z,19.50
2022-09-13T18:31:06.913Z,19.50
2022-09-13T18:34:01.946Z,19.50
2022-09-13T18:36:47.644Z,19.40
2022-09-13T18:39:33.116Z,19.30
2022-09-13T18:42:18.852Z,19.30
2022-09-13T18:45:04.482Z,19.30
2022-09-13T18:47:49.757Z,19.30
2022-09-13T18:50:35.301Z,19.30
2022-09-13T18:53:25.627Z,19.40
2022-09-13T19:04:26.784Z,19.30
2022-09-13T19:07:11.864Z,19.20
2022-09-13T19:09:58.004Z,19.20
2022-09-13T19:12:43.696Z,19.20
2022-09-13T19:15:28.959Z,19.20
2022-09-13T19:18:14.376Z,19.30
2022-09-13T19:21:04.543Z,19.30
2022-09-13T19:23:59.381Z,19.20
2022-09-13T19:26:47.114Z,19.20
2022-09-13T19:29:32.500Z,19.10
2022-09-13T19:32:17.871Z,19.10
2022-09-13T19:35:03.437Z,19.10
2022-09-13T19:37:48.803Z,19.20
2022-09-13T19:40:34.225Z,19.10
2022-09-13T19:43:19.868Z,19.10
2022-09-13T19:46:11.121Z,19.10
2022-09-13T19:48:57.007Z,19.10
2022-09-13T19:51:47.563Z,19.10
2022-09-13T19:54:37.045Z,19.10
2022-09-13T20:02:19.350Z,19.10
2022-09-13T20:05:05.388Z,19.10
2022-09-13T20:07:50.600Z,19.10
2022-09-13T20:10:38.083Z,19.20
2022-09-13T20:13:24.760Z,19.20
2022-09-13T20:16:22.124Z,19.10
2022-09-13T20:19:29.667Z,19.20
2022-09-13T20:22:14.592Z,19.10
2022-09-13T20:24:59.581Z,19.00
2022-09-13T20:27:45.289Z,19.00
2022-09-13T20:30:31.356Z,19.00
2022-09-13T20:33:16.750Z,19.00
2022-09-13T20:36:08.459Z,18.90
2022-09-13T20:38:55.191Z,18.90
2022-09-13T20:41:43.318Z,18.80
2022-09-13T20:44:28.684Z,18.70
2022-09-13T20:47:14.381Z,18.70
2022-09-13T20:49:59.620Z,18.60
2022-09-13T20:52:45.741Z,18.50
2022-09-13T20:55:31.350Z,18.50
2022-09-13T21:03:20.460Z,18.60
2022-09-13T21:06:07.021Z,18.50
2022-09-13T21:08:53.185Z,18.60
2022-09-13T21:11:38.676Z,18.50
2022-09-13T21:14:24.220Z,18.50
2022-09-13T21:17:10.152Z,18.50
2022-09-13T21:19:55.957Z,18.40
2022-09-13T21:22:41.561Z,18.40
2022-09-13T21:25:26.859Z,18.50
2022-09-13T21:28:12.734Z,18.50
2022-09-13T21:31:00.296Z,18.50
2022-09-13T21:33:45.874Z,18.50
2022-09-13T21:36:34.716Z,18.50
2022-09-13T21:39:20.506Z,18.50
2022-09-13T21:42:05.809Z,18.50
2022-09-13T21:44:51.257Z,18.40
2022-09-13T21:47:36.555Z,18.40
2022-09-13T21:50:22.120Z,18.30
2022-09-13T21:53:07.671Z,18.30
2022-09-13T21:55:53.097Z,18.40
2022-09-13T22:06:47.857Z,18.40
2022-09-13T22:09:33.358Z,18.30
2022-09-13T22:12:18.853Z,18.30
2022-09-13T22:15:04.972Z,18.30
2022-09-13T22:17:50.415Z,18.30
2022-09-13T22:20:36.107Z,18.20
2022-09-13T22:23:21.636Z,18.20
2022-09-13T22:26:22.202Z,18.20
2022-09-13T22:29:08.829Z,18.20
2022-09-13T22:31:54.337Z,18.20
2022-09-13T22:37:50.067Z,18.30
2022-09-13T22:40:36.353Z,18.30
2022-09-13T22:43:21.738Z,18.20
2022-09-13T22:46:13.167Z,18.30
2022-09-13T22:48:59.613Z,18.30
2022-09-13T22:51:46.462Z,18.20
2022-09-13T22:54:31.753Z,18.20
2022-09-13T23:02:13.762Z,18.10
2022-09-13T23:04:59.174Z,18.20
2022-09-13T23:07:44.656Z,18.10
2022-09-13T23:10:30.387Z,18.20
2022-09-13T23:13:15.463Z,18.20
2022-09-13T23:16:06.028Z,18.20
2022-09-13T23:18:52.182Z,18.20
2022-09-13T23:21:38.000Z,18.30
2022-09-13T23:24:24.364Z,18.30
2022-09-13T23:27:09.703Z,18.30
2022-09-13T23:29:55.245Z,18.00
2022-09-13T23:32:40.752Z,17.90
2022-09-13T23:35:26.318Z,17.90
2022-09-13T23:38:11.735Z,18.00
2022-09-13T23:40:58.483Z,17.90
2022-09-13T23:48:09.630Z,17.90
2022-09-13T23:51:03.626Z,17.90
2022-09-13T23:53:49.574Z,17.90
2022-09-13T23:56:35.959Z,18.00
2022-09-13T23:59:21.153Z,18.00
